createdAt,value
2018-11-04T00:00:57.570Z,102450.62
2018-11-04T00:03:26.313Z,102438.57
2018-11-04T00:05:54.761Z,102440.55
2018-11-04T00:08:23.201Z,102443.45
2018-11-04T00:10:51.637Z,102431.46
2018-11-04T00:13:20.425Z,102433.16
2018-11-04T00:15:48.776Z,102432.63
2018-11-04T00:18:17.184Z,102436.70
2018-11-04T00:20:45.629Z,102437.02
2018-11-04T00:23:14.043Z,102428.92
2018-11-04T00:25:42.491Z,102428.03
2018-11-04T00:28:10.913Z,102424.66
2018-11-04T00:30:39.351Z,102418.76
2018-11-04T00:33:07.780Z,102406.77
2018-11-04T00:35:36.246Z,102414.75
2018-11-04T00:38:04.687Z,102415.22
2018-11-04T00:40:33.104Z,102409.13
2018-11-04T00:43:01.537Z,102406.39
2018-11-04T00:45:30.093Z,102401.45
2018-11-04T00:47:58.435Z,102393.00
2018-11-04T00:50:26.860Z,102387.64
2018-11-04T00:52:55.312Z,102385.11
2018-11-04T00:55:23.731Z,102379.68
2018-11-04T00:57:52.173Z,102380.41
2018-11-04T01:00:20.676Z,102383.98
2018-11-04T01:02:50.272Z,102379.78
2018-11-04T01:05:19.041Z,102376.94
2018-11-04T01:07:47.477Z,102374.73
2018-11-04T01:10:15.937Z,102367.66
2018-11-04T01:12:44.874Z,102367.34
2018-11-04T01:15:14.169Z,102360.27
2018-11-04T01:17:43.337Z,102355.19
2018-11-04T01:20:13.724Z,102351.65
2018-11-04T01:22:42.354Z,102354.50
2018-11-04T01:25:10.830Z,102346.94
2018-11-04T01:27:39.364Z,102350.28
2018-11-04T01:30:10.823Z,102336.58
2018-11-04T01:32:39.351Z,102334.00
2018-11-04T01:35:08.108Z,102336.78
2018-11-04T01:37:36.572Z,102331.97
2018-11-04T01:40:06.085Z,102324.63
2018-11-04T01:42:34.539Z,102324.63
2018-11-04T01:45:02.975Z,102324.52
2018-11-04T01:47:31.405Z,102320.12
2018-11-04T01:49:59.821Z,102314.38
2018-11-04T01:52:28.264Z,102306.90
2018-11-04T01:54:56.692Z,102306.34
2018-11-04T01:57:25.141Z,102303.77
2018-11-04T01:59:53.569Z,102295.05
2018-11-04T02:02:23.084Z,102290.80
2018-11-04T02:04:51.488Z,102285.34
2018-11-04T02:07:19.945Z,102280.33
2018-11-04T02:09:48.349Z,102277.45
2018-11-04T02:12:16.779Z,102276.97
2018-11-04T02:14:45.215Z,102266.77
2018-11-04T02:17:13.646Z,102270.44
2018-11-04T02:19:42.090Z,102263.15
2018-11-04T02:22:10.505Z,102250.06
2018-11-04T02:24:38.956Z,102255.90
2018-11-04T02:27:07.383Z,102245.66
2018-11-04T02:29:35.825Z,102236.36
2018-11-04T02:32:04.255Z,102237.45
2018-11-04T02:34:32.691Z,102234.48
2018-11-04T02:37:01.114Z,102230.86
2018-11-04T02:39:29.568Z,102235.46
2018-11-04T02:41:57.978Z,102229.64
2018-11-04T02:44:26.402Z,102219.11
2018-11-04T02:46:54.850Z,102220.86
2018-11-04T02:49:23.275Z,102219.22
2018-11-04T02:51:51.688Z,102216.53
2018-11-04T02:54:20.158Z,102210.50
2018-11-04T02:56:48.594Z,102210.69
2018-11-04T02:59:17.064Z,102209.71
2018-11-04T03:01:45.520Z,102202.25
2018-11-04T03:04:14.302Z,102199.64
2018-11-04T03:06:42.705Z,102193.89
2018-11-04T03:09:11.688Z,102201.15
2018-11-04T03:11:40.127Z,102185.44
2018-11-04T03:14:08.610Z,102191.64
2018-11-04T03:16:37.013Z,102190.47
2018-11-04T03:19:05.602Z,102190.82
2018-11-04T03:21:34.038Z,102188.59
2018-11-04T03:24:02.481Z,102181.38
2018-11-04T03:26:30.951Z,102181.83
2018-11-04T03:29:00.213Z,102180.70
2018-11-04T03:31:28.627Z,102177.62
2018-11-04T03:33:57.090Z,102175.02
2018-11-04T03:36:25.509Z,102163.78
2018-11-04T03:38:53.933Z,102159.75
2018-11-04T03:41:22.368Z,102158.84
2018-11-04T03:43:50.825Z,102153.52
2018-11-04T03:46:19.240Z,102153.84
2018-11-04T03:48:47.705Z,102148.47
2018-11-04T03:51:16.130Z,102142.23
2018-11-04T03:53:44.567Z,102138.33
2018-11-04T03:56:12.981Z,102139.34
2018-11-04T03:58:41.414Z,102139.02
2018-11-04T04:01:09.852Z,102134.28
2018-11-04T04:03:38.300Z,102134.44
2018-11-04T04:06:06.775Z,102130.31
2018-11-04T04:08:35.229Z,102127.08
2018-11-04T04:11:03.653Z,102126.91
2018-11-04T04:13:32.161Z,102122.64
2018-11-04T04:16:00.556Z,102119.19
2018-11-04T04:18:28.994Z,102116.38
2018-11-04T04:21:03.304Z,102110.14
2018-11-04T04:23:31.774Z,102107.73
2018-11-04T04:26:00.178Z,102109.15
2018-11-04T04:28:28.625Z,102104.47
2018-11-04T04:30:57.073Z,102093.10
2018-11-04T04:33:25.622Z,102087.08
2018-11-04T04:35:54.046Z,102089.61
2018-11-04T04:38:22.568Z,102080.77
2018-11-04T04:40:50.987Z,102087.41
2018-11-04T04:43:19.481Z,102080.14
2018-11-04T04:45:47.899Z,102090.77
2018-11-04T04:48:16.364Z,102094.57
2018-11-04T04:50:44.780Z,102092.03
2018-11-04T04:53:13.192Z,102094.37
2018-11-04T04:55:41.676Z,102089.28
2018-11-04T04:58:10.088Z,102085.39
2018-11-04T05:00:38.542Z,102075.27
2018-11-04T05:03:06.956Z,102076.95
2018-11-04T05:05:35.402Z,102072.70
2018-11-04T05:08:03.819Z,102070.23
2018-11-04T05:10:32.239Z,102067.75
2018-11-04T05:13:00.657Z,102061.66
2018-11-04T05:15:29.108Z,102058.09
2018-11-04T05:17:57.557Z,102058.16
2018-11-04T05:20:25.996Z,102063.08
2018-11-04T05:22:54.406Z,102057.56
2018-11-04T05:25:22.845Z,102048.62
2018-11-04T05:27:51.257Z,102051.58
2018-11-04T05:30:19.709Z,102054.75
2018-11-04T05:32:48.139Z,102062.21
2018-11-04T05:35:16.587Z,102057.57
2018-11-04T05:37:45.013Z,102059.39
2018-11-04T05:40:13.457Z,102059.03
2018-11-04T05:42:41.884Z,102050.82
2018-11-04T05:45:10.372Z,102055.00
2018-11-04T05:47:38.816Z,102053.05
2018-11-04T05:50:07.496Z,102051.67
2018-11-04T05:52:36.423Z,102053.39
2018-11-04T05:55:05.493Z,102046.61
2018-11-04T05:57:34.062Z,102042.42
2018-11-04T06:00:02.508Z,102047.41
2018-11-04T06:02:30.985Z,102050.66
2018-11-04T06:04:59.420Z,102055.06
2018-11-04T06:07:27.853Z,102055.67
2018-11-04T06:09:56.260Z,102051.50
2018-11-04T06:12:24.722Z,102053.56
2018-11-04T06:14:53.417Z,102055.66
2018-11-04T06:17:21.876Z,102047.30
2018-11-04T06:19:50.298Z,102055.11
2018-11-04T06:22:18.745Z,102051.30
2018-11-04T06:24:47.143Z,102045.35
2018-11-04T06:27:15.629Z,102043.73
2018-11-04T06:29:44.052Z,102043.18
2018-11-04T06:32:12.617Z,102042.07
2018-11-04T06:34:41.067Z,102041.45
2018-11-04T06:37:09.483Z,102035.91
2018-11-04T06:39:37.890Z,102041.05
2018-11-04T06:42:06.356Z,102047.23
2018-11-04T06:44:34.773Z,102047.48
2018-11-04T06:47:05.244Z,102052.33
2018-11-04T06:49:33.588Z,102054.02
2018-11-04T06:52:02.054Z,102055.19
2018-11-04T06:54:30.477Z,102051.98
2018-11-04T06:56:58.908Z,102054.52
2018-11-04T06:59:27.425Z,102045.28
2018-11-04T07:01:55.897Z,102049.78
2018-11-04T07:04:25.866Z,102046.80
2018-11-04T07:06:54.286Z,102047.39
2018-11-04T07:09:22.729Z,102050.68
2018-11-04T07:11:51.260Z,102050.41
2018-11-04T07:14:20.536Z,102046.67
2018-11-04T07:16:49.033Z,102045.75
2018-11-04T07:19:17.749Z,102042.77
2018-11-04T07:21:46.216Z,102045.36
2018-11-04T07:24:14.943Z,102042.36
2018-11-04T07:26:43.460Z,102038.67
2018-11-04T07:29:11.911Z,102042.94
2018-11-04T07:31:40.319Z,102043.32
2018-11-04T07:34:09.025Z,102044.02
2018-11-04T07:36:37.510Z,102048.66
2018-11-04T07:39:09.298Z,102037.13
2018-11-04T07:41:37.727Z,102035.23
2018-11-04T07:44:06.338Z,102043.28
2018-11-04T07:46:34.722Z,102041.03
2018-11-04T07:49:03.168Z,102043.38
2018-11-04T07:51:31.639Z,102032.84
2018-11-04T07:54:00.060Z,102034.27
2018-11-04T07:56:28.484Z,102031.28
2018-11-04T07:58:59.489Z,102039.13
2018-11-04T08:01:27.966Z,102023.16
2018-11-04T08:03:56.495Z,102022.31
2018-11-04T08:06:24.924Z,102022.07
2018-11-04T08:08:53.407Z,102013.53
2018-11-04T08:11:21.826Z,102015.17
2018-11-04T08:13:50.252Z,102005.69
2018-11-04T08:16:18.709Z,102012.59
2018-11-04T08:18:47.248Z,102010.23
2018-11-04T08:21:15.783Z,102005.02
2018-11-04T08:23:44.216Z,101998.15
2018-11-04T08:26:12.616Z,102000.80
2018-11-04T08:28:41.046Z,101996.78
2018-11-04T08:31:09.444Z,101997.34
2018-11-04T08:33:37.900Z,102001.85
2018-11-04T08:36:06.359Z,101988.67
2018-11-04T08:38:34.809Z,101996.97
2018-11-04T08:41:03.248Z,101995.17
2018-11-04T08:43:31.676Z,101993.36
2018-11-04T08:46:00.079Z,101986.28
2018-11-04T08:48:28.512Z,101984.98
2018-11-04T08:50:56.913Z,101973.14
2018-11-04T08:53:25.349Z,101977.31
2018-11-04T08:55:53.788Z,101972.09
2018-11-04T08:58:22.223Z,101965.36
2018-11-04T09:00:50.702Z,101963.93
2018-11-04T09:03:19.115Z,101956.55
2018-11-04T09:05:47.609Z,101957.31
2018-11-04T09:08:16.025Z,101956.20
2018-11-04T09:10:44.452Z,101946.91
2018-11-04T09:13:12.882Z,101951.74
2018-11-04T09:15:41.323Z,101951.09
2018-11-04T09:18:09.744Z,101953.86
2018-11-04T09:20:38.207Z,101954.58
2018-11-04T09:23:06.608Z,101950.91
2018-11-04T09:25:35.156Z,101946.36
2018-11-04T09:28:03.582Z,101949.32
2018-11-04T09:30:32.069Z,101952.23
2018-11-04T09:33:00.528Z,101950.55
2018-11-04T09:35:30.494Z,101950.78
2018-11-04T09:37:58.840Z,101942.86
2018-11-04T09:40:27.295Z,101945.09
2018-11-04T09:42:55.737Z,101943.13
2018-11-04T09:45:24.201Z,101939.75
2018-11-04T09:47:52.604Z,101943.48
2018-11-04T09:50:21.118Z,101946.09
2018-11-04T09:52:49.540Z,101930.83
2018-11-04T09:55:18.011Z,101931.93
2018-11-04T09:57:46.415Z,101927.22
2018-11-04T10:00:15.846Z,101933.22
2018-11-04T10:02:45.910Z,101932.73
2018-11-04T10:05:14.459Z,101925.08
2018-11-04T10:07:42.863Z,101915.88
2018-11-04T10:10:12.856Z,101924.69
2018-11-04T10:12:42.484Z,101910.57
2018-11-04T10:15:11.223Z,101911.47
2018-11-04T10:17:40.312Z,101906.55
2018-11-04T10:20:10.740Z,101900.95
2018-11-04T10:22:39.230Z,101903.17
2018-11-04T10:25:08.600Z,101890.79
2018-11-04T10:27:37.371Z,101889.59
2018-11-04T10:30:07.934Z,101887.08
2018-11-04T10:32:36.364Z,101880.45
2018-11-04T10:35:05.484Z,101884.35
2018-11-04T10:37:33.978Z,101881.82
2018-11-04T10:40:02.434Z,101875.55
2018-11-04T10:42:30.874Z,101877.61
2018-11-04T10:44:59.324Z,101879.30
2018-11-04T10:47:27.779Z,101871.98
2018-11-04T10:49:56.302Z,101874.20
2018-11-04T10:52:24.749Z,101872.70
2018-11-04T10:54:53.272Z,101872.02
2018-11-04T10:57:21.678Z,101864.74
2018-11-04T10:59:50.686Z,101868.13
2018-11-04T11:02:19.180Z,101859.95
2018-11-04T11:04:47.628Z,101853.34
2018-11-04T11:07:16.069Z,101852.02
2018-11-04T11:09:44.502Z,101850.66
2018-11-04T11:12:12.934Z,101849.94
2018-11-04T11:14:41.401Z,101849.94
2018-11-04T11:17:09.820Z,101837.05
2018-11-04T11:19:38.262Z,101845.22
2018-11-04T11:22:06.719Z,101845.08
2018-11-04T11:24:35.165Z,101844.72
2018-11-04T11:27:03.631Z,101839.79
2018-11-04T11:29:32.060Z,101837.58
2018-11-04T11:32:00.531Z,101836.91
2018-11-04T11:34:28.956Z,101825.69
2018-11-04T11:36:57.420Z,101813.59
2018-11-04T11:39:25.849Z,101803.91
2018-11-04T11:41:54.297Z,101805.11
2018-11-04T11:44:22.720Z,101796.73
2018-11-04T11:46:51.189Z,101788.21
2018-11-04T11:49:19.648Z,101792.45
2018-11-04T11:51:48.080Z,101782.41
2018-11-04T11:54:16.503Z,101779.31
2018-11-04T11:56:44.955Z,101775.03
2018-11-04T11:59:13.409Z,101779.81
2018-11-04T12:01:41.858Z,101774.02
2018-11-04T12:04:10.383Z,101767.34
2018-11-04T12:06:39.085Z,101762.05
2018-11-04T12:09:07.994Z,101753.16
2018-11-04T12:11:36.450Z,101755.16
2018-11-04T12:14:04.938Z,101751.77
2018-11-04T12:16:33.381Z,101757.39
2018-11-04T12:19:01.822Z,101755.17
2018-11-04T12:21:30.281Z,101747.17
2018-11-04T12:23:58.710Z,101742.75
2018-11-04T12:26:27.182Z,101742.39
2018-11-04T12:28:55.604Z,101737.45
2018-11-04T12:31:24.060Z,101734.89
2018-11-04T12:33:52.496Z,101736.26
2018-11-04T12:36:20.964Z,101739.85
2018-11-04T12:38:49.398Z,101735.27
2018-11-04T12:41:17.874Z,101726.75
2018-11-04T12:43:46.288Z,101718.55
2018-11-04T12:46:14.742Z,101718.22
2018-11-04T12:48:43.171Z,101717.84
2018-11-04T12:51:11.620Z,101714.78
2018-11-04T12:53:40.048Z,101718.72
2018-11-04T12:56:08.509Z,101719.05
2018-11-04T12:58:36.937Z,101714.95
2018-11-04T13:01:05.733Z,101717.16
2018-11-04T13:03:34.146Z,101703.70
2018-11-04T13:06:02.607Z,101709.49
2018-11-04T13:08:31.082Z,101706.57
2018-11-04T13:10:59.538Z,101708.97
2018-11-04T13:13:27.992Z,101707.09
2018-11-04T13:15:56.434Z,101697.22
2018-11-04T13:18:24.910Z,101700.78
2018-11-04T13:20:53.369Z,101688.68
2018-11-04T13:23:21.810Z,101686.80
2018-11-04T13:25:50.245Z,101682.70
2018-11-04T13:28:18.712Z,101678.61
2018-11-04T13:30:47.136Z,101680.14
2018-11-04T13:33:15.582Z,101674.17
2018-11-04T13:35:44.028Z,101675.34
2018-11-04T13:38:12.509Z,101670.75
2018-11-04T13:40:40.936Z,101673.83
2018-11-04T13:43:09.452Z,101671.81
2018-11-04T13:45:37.871Z,101673.86
2018-11-04T13:48:06.696Z,101678.66
2018-11-04T13:50:35.134Z,101680.38
2018-11-04T13:53:03.592Z,101686.35
2018-11-04T13:55:32.008Z,101686.70
2018-11-04T13:58:00.516Z,101691.66
2018-11-04T14:00:28.978Z,101687.23
2018-11-04T14:02:57.523Z,101688.95
2018-11-04T14:05:25.932Z,101678.20
2018-11-04T14:07:54.412Z,101666.12
2018-11-04T14:10:22.846Z,101664.26
2018-11-04T14:12:51.348Z,101667.50
2018-11-04T14:15:19.752Z,101660.16
2018-11-04T14:17:48.188Z,101660.69
2018-11-04T14:20:16.637Z,101661.53
2018-11-04T14:22:45.089Z,101660.16
2018-11-04T14:25:13.571Z,101661.69
2018-11-04T14:27:42.076Z,101660.33
2018-11-04T14:30:12.713Z,101655.91
2018-11-04T14:32:41.291Z,101655.25
2018-11-04T14:35:10.636Z,101650.13
2018-11-04T14:37:40.090Z,101650.80
2018-11-04T14:40:10.410Z,101652.55
2018-11-04T14:42:39.551Z,101651.34
2018-11-04T14:45:08.329Z,101648.45
2018-11-04T14:47:37.170Z,101650.67
2018-11-04T14:50:09.217Z,101653.92
2018-11-04T14:52:37.874Z,101648.14
2018-11-04T14:55:06.708Z,101652.23
2018-11-04T14:57:35.422Z,101647.45
2018-11-04T15:00:04.149Z,101650.55
2018-11-04T15:02:32.595Z,101646.63
2018-11-04T15:05:01.358Z,101647.48
2018-11-04T15:07:29.906Z,101649.88
2018-11-04T15:09:58.249Z,101649.55
2018-11-04T15:12:26.672Z,101647.83
2018-11-04T15:14:55.122Z,101643.09
2018-11-04T15:17:23.537Z,101644.80
2018-11-04T15:19:52.000Z,101646.84
2018-11-04T15:22:20.437Z,101644.13
2018-11-04T15:24:48.968Z,101636.08
2018-11-04T15:27:17.357Z,101639.66
2018-11-04T15:29:45.813Z,101641.53
2018-11-04T15:32:14.233Z,101635.25
2018-11-04T15:34:42.884Z,101631.84
2018-11-04T15:37:11.127Z,101625.89
2018-11-04T15:39:39.605Z,101631.52
2018-11-04T15:42:08.046Z,101626.41
2018-11-04T15:44:36.514Z,101624.70
2018-11-04T15:47:05.340Z,101626.91
2018-11-04T15:49:33.795Z,101620.28
2018-11-04T15:52:02.242Z,101614.50
2018-11-04T15:54:30.689Z,101624.53
2018-11-04T15:57:06.120Z,101614.14
2018-11-04T15:59:34.516Z,101611.94
2018-11-04T16:02:02.962Z,101608.88
2018-11-04T16:04:31.416Z,101612.13
2018-11-04T16:06:59.852Z,101609.73
2018-11-04T16:09:28.300Z,101600.38
2018-11-04T16:11:56.729Z,101597.47
2018-11-04T16:14:25.161Z,101597.80
2018-11-04T16:16:53.585Z,101593.36
2018-11-04T16:19:22.060Z,101596.41
2018-11-04T16:21:50.473Z,101597.45
2018-11-04T16:24:18.919Z,101592.70
2018-11-04T16:26:47.340Z,101593.19
2018-11-04T16:29:15.776Z,101595.75
2018-11-04T16:31:44.235Z,101590.30
2018-11-04T16:34:12.838Z,101585.19
2018-11-04T16:36:41.253Z,101584.69
2018-11-04T16:39:10.144Z,101591.33
2018-11-04T16:41:38.578Z,101593.70
2018-11-04T16:44:07.799Z,101595.41
2018-11-04T16:46:36.427Z,101586.39
2018-11-04T16:49:05.449Z,101585.39
2018-11-04T16:51:33.869Z,101582.80
2018-11-04T16:54:02.344Z,101585.20
2018-11-04T16:56:30.765Z,101591.83
2018-11-04T16:58:59.210Z,101593.03
2018-11-04T17:01:27.672Z,101596.09
2018-11-04T17:03:56.150Z,101601.38
2018-11-04T17:06:24.660Z,101604.78
2018-11-04T17:08:53.429Z,101609.71
2018-11-04T17:11:21.969Z,101609.03
2018-11-04T17:13:50.439Z,101601.19
2018-11-04T17:16:18.916Z,101593.36
2018-11-04T17:18:47.331Z,101593.19
2018-11-04T17:21:15.772Z,101589.98
2018-11-04T17:23:44.184Z,101584.53
2018-11-04T17:26:12.641Z,101591.15
2018-11-04T17:28:41.080Z,101590.96
2018-11-04T17:31:09.540Z,101587.06
2018-11-04T17:33:37.976Z,101583.16
2018-11-04T17:36:06.566Z,101579.73
2018-11-04T17:38:34.917Z,101574.98
2018-11-04T17:41:03.365Z,101580.27
2018-11-04T17:43:31.797Z,101580.27
2018-11-04T17:46:00.241Z,101574.13
2018-11-04T17:48:28.672Z,101576.02
2018-11-04T17:50:57.120Z,101568.35
2018-11-04T17:53:25.537Z,101566.99
2018-11-04T17:55:53.986Z,101567.51
2018-11-04T17:58:22.396Z,101568.87
2018-11-04T18:00:50.864Z,101567.51
2018-11-04T18:03:19.293Z,101567.51
2018-11-04T18:05:47.736Z,101564.78
2018-11-04T18:08:16.203Z,101564.45
2018-11-04T18:10:44.646Z,101566.66
2018-11-04T18:13:13.095Z,101567.86
2018-11-04T18:15:41.574Z,101560.39
2018-11-04T18:18:10.422Z,101572.29
2018-11-04T18:20:38.887Z,101574.69
2018-11-04T18:23:07.287Z,101572.48
2018-11-04T18:25:35.734Z,101569.75
2018-11-04T18:28:04.165Z,101567.69
2018-11-04T18:30:32.594Z,101566.17
2018-11-04T18:33:01.026Z,101570.58
2018-11-04T18:35:29.462Z,101581.16
2018-11-04T18:37:57.868Z,101581.31
2018-11-04T18:40:26.317Z,101580.14
2018-11-04T18:42:54.726Z,101570.43
2018-11-04T18:45:23.159Z,101566.86
2018-11-04T18:47:51.556Z,101570.27
2018-11-04T18:50:20.086Z,101568.06
2018-11-04T18:52:48.748Z,101573.67
2018-11-04T18:55:17.010Z,101576.39
2018-11-04T18:57:45.471Z,101575.22
2018-11-04T19:00:15.295Z,101578.95
2018-11-04T19:02:43.989Z,101574.86
2018-11-04T19:05:12.494Z,101574.02
2018-11-04T19:07:40.881Z,101562.12
2018-11-04T19:10:12.281Z,101568.05
2018-11-04T19:12:40.768Z,101555.79
2018-11-04T19:15:09.404Z,101550.86
2018-11-04T19:17:38.081Z,101547.62
2018-11-04T19:20:08.397Z,101546.96
2018-11-04T19:22:37.156Z,101546.96
2018-11-04T19:25:06.190Z,101550.20
2018-11-04T19:27:34.633Z,101550.36
2018-11-04T19:30:03.060Z,101547.83
2018-11-04T19:32:31.497Z,101550.72
2018-11-04T19:34:59.936Z,101546.63
2018-11-04T19:37:28.454Z,101540.67
2018-11-04T19:39:56.812Z,101529.93
2018-11-04T19:42:25.268Z,101531.81
2018-11-04T19:44:53.690Z,101536.58
2018-11-04T19:47:22.153Z,101535.55
2018-11-04T19:49:50.568Z,101538.46
2018-11-04T19:52:19.021Z,101549.17
2018-11-04T19:54:47.417Z,101537.59
2018-11-04T19:57:15.873Z,101548.83
2018-11-04T19:59:44.297Z,101539.28
2018-11-04T20:02:12.764Z,101542.53
2018-11-04T20:04:41.207Z,101554.79
2018-11-04T20:07:09.664Z,101552.91
2018-11-04T20:09:38.093Z,101544.73
2018-11-04T20:12:10.714Z,101534.68
2018-11-04T20:14:39.155Z,101530.78
2018-11-04T20:17:07.597Z,101530.43
2018-11-04T20:19:41.337Z,101523.29
2018-11-04T20:22:09.639Z,101524.84
2018-11-04T20:24:43.358Z,101530.29
2018-11-04T20:27:11.796Z,101526.53
2018-11-04T20:29:40.209Z,101523.80
2018-11-04T20:32:13.856Z,101519.02
2018-11-04T20:34:42.277Z,101512.20
2018-11-04T20:37:10.737Z,101514.79
2018-11-04T20:39:44.589Z,101514.42
2018-11-04T20:42:13.032Z,101510.53
2018-11-04T20:44:47.568Z,101507.81
2018-11-04T20:47:16.332Z,101506.45
2018-11-04T20:49:50.068Z,101502.55
2018-11-04T20:52:18.958Z,101497.59
2018-11-04T20:54:47.469Z,101500.50
2018-11-04T20:57:21.112Z,101499.84
2018-11-04T20:59:49.534Z,101502.73
2018-11-04T21:02:18.237Z,101496.62
2018-11-04T21:04:46.459Z,101491.18
2018-11-04T21:07:14.905Z,101497.47
2018-11-04T21:09:43.367Z,101491.66
2018-11-04T21:12:11.793Z,101492.05
2018-11-04T21:14:40.215Z,101489.48
2018-11-04T21:17:08.647Z,101484.37
2018-11-04T21:19:37.106Z,101478.44
2018-11-04T21:22:08.928Z,101477.78
2018-11-04T21:24:37.363Z,101479.30
2018-11-04T21:27:06.374Z,101476.77
2018-11-04T21:29:35.151Z,101480.00
2018-11-04T21:32:03.649Z,101480.52
2018-11-04T21:34:32.058Z,101477.44
2018-11-04T21:37:00.513Z,101477.80
2018-11-04T21:39:28.926Z,101477.80
2018-11-04T21:41:57.351Z,101481.52
2018-11-04T21:44:25.964Z,101480.16
2018-11-04T21:46:54.250Z,101480.16
2018-11-04T21:49:22.751Z,101481.52
2018-11-04T21:51:51.144Z,101464.34
2018-11-04T21:54:19.585Z,101465.05
2018-11-04T21:56:48.008Z,101458.56
2018-11-04T21:59:16.445Z,101455.00
2018-11-04T22:01:44.915Z,101448.00
2018-11-04T22:04:13.428Z,101449.03
2018-11-04T22:06:41.820Z,101443.92
2018-11-04T22:09:10.769Z,101447.00
2018-11-04T22:11:39.295Z,101445.64
2018-11-04T22:14:07.760Z,101448.36
2018-11-04T22:16:36.179Z,101450.37
2018-11-04T22:19:04.638Z,101446.11
2018-11-04T22:21:33.061Z,101447.47
2018-11-04T22:24:01.517Z,101448.16
2018-11-04T22:26:29.971Z,101440.50
2018-11-04T22:28:58.418Z,101441.34
2018-11-04T22:31:26.956Z,101439.98
2018-11-04T22:33:55.439Z,101430.45
2018-11-04T22:36:23.891Z,101428.77
2018-11-04T22:38:52.357Z,101426.37
2018-11-04T22:41:21.046Z,101426.37
2018-11-04T22:43:49.496Z,101437.26
2018-11-04T22:46:17.937Z,101434.20
2018-11-04T22:48:46.382Z,101428.41
2018-11-04T22:51:14.786Z,101422.50
2018-11-04T22:53:43.244Z,101419.09
2018-11-04T22:56:11.781Z,101412.80
2018-11-04T22:58:40.124Z,101412.80
2018-11-04T23:01:08.583Z,101422.84
2018-11-04T23:03:37.053Z,101424.72
2018-11-04T23:06:12.049Z,101428.41
2018-11-04T23:08:40.486Z,101422.64
2018-11-04T23:11:08.893Z,101420.95
2018-11-04T23:13:37.339Z,101417.72
2018-11-04T23:16:05.812Z,101410.06
2018-11-04T23:18:34.268Z,101410.58
2018-11-04T23:21:02.699Z,101405.63
2018-11-04T23:23:31.155Z,101402.05
2018-11-04T23:25:59.574Z,101405.63
2018-11-04T23:28:28.033Z,101403.26
2018-11-04T23:30:56.446Z,101410.39
2018-11-04T23:33:24.885Z,101408.00
2018-11-04T23:35:53.313Z,101406.12
2018-11-04T23:38:21.768Z,101408.84
2018-11-04T23:40:50.199Z,101405.66
2018-11-04T23:43:18.657Z,101409.37
2018-11-04T23:45:47.120Z,101403.05
2018-11-04T23:48:15.550Z,101407.98
2018-11-04T23:50:44.002Z,101411.39
2018-11-04T23:53:12.409Z,101405.62
2018-11-04T23:55:40.846Z,101401.19
2018-11-04T23:58:10.915Z,101396.91
